createdAt,value
2018-02-20T00:13:54.859Z,1.56
2018-02-20T00:34:28.055Z,1.50
2018-02-20T01:13:05.007Z,0.58
2018-02-20T01:33:39.030Z,0.27
2018-02-20T01:54:10.014Z,0.34
2018-02-20T02:14:47.426Z,0.14
2018-02-20T02:35:25.464Z,0.04
2018-02-20T02:55:59.137Z,-0.12
2018-02-20T03:16:34.368Z,-0.43
2018-02-20T03:37:08.514Z,-0.46
2018-02-20T03:57:39.484Z,-0.30
2018-02-20T04:18:10.758Z,-0.49
2018-02-20T04:38:45.724Z,-0.53
2018-02-20T04:59:21.423Z,-0.26
2018-02-20T05:19:57.186Z,-0.21
2018-02-20T05:40:30.615Z,-0.60
2018-02-20T06:01:04.970Z,-1.00
2018-02-20T06:21:42.090Z,-1.19
2018-02-20T06:42:17.968Z,-1.16
2018-02-20T07:02:52.655Z,-1.12
2018-02-20T07:23:27.590Z,-1.02
2018-02-20T07:44:03.269Z,-0.97
2018-02-20T08:04:39.365Z,-0.78
2018-02-20T08:25:13.745Z,-0.51
2018-02-20T08:45:46.945Z,0.14
2018-02-20T09:06:20.871Z,0.95
2018-02-20T09:26:57.073Z,1.30
2018-02-20T09:47:36.694Z,1.59
2018-02-20T10:08:09.898Z,2.21
2018-02-20T10:28:42.892Z,2.93
2018-02-20T10:49:20.363Z,3.09
2018-02-20T11:09:52.778Z,2.98
2018-02-20T11:30:32.838Z,3.10
2018-02-20T11:51:08.232Z,3.49
2018-02-20T12:11:42.930Z,3.69
2018-02-20T12:32:17.279Z,4.09
2018-02-20T12:52:53.468Z,4.29
2018-02-20T13:13:28.753Z,4.43
2018-02-20T13:34:04.937Z,4.68
2018-02-20T13:54:40.469Z,4.68
2018-02-20T14:15:17.860Z,4.72
2018-02-20T14:35:52.604Z,4.69
2018-02-20T14:56:25.720Z,5.08
2018-02-20T15:17:00.069Z,5.50
2018-02-20T15:37:36.258Z,6.54
2018-02-20T15:58:08.461Z,5.71
2018-02-20T16:18:44.654Z,5.09
2018-02-20T16:39:18.085Z,4.67
2018-02-20T16:59:52.480Z,3.84
2018-02-20T17:20:26.486Z,3.10
2018-02-20T17:41:01.742Z,2.75
2018-02-20T18:01:42.246Z,2.60
2018-02-20T18:22:17.204Z,2.56
2018-02-20T18:42:49.405Z,2.76
2018-02-20T19:03:24.676Z,3.01
2018-02-20T19:23:59.959Z,3.07
2018-02-20T19:44:36.142Z,3.14
2018-02-20T20:05:14.640Z,3.04
2018-02-20T20:25:48.864Z,3.11
2018-02-20T20:46:23.798Z,3.09
2018-02-20T21:06:57.849Z,2.31
2018-02-20T21:27:30.356Z,1.76
2018-02-20T21:48:03.479Z,1.50
2018-02-20T22:08:37.683Z,1.22
2018-02-20T22:29:11.868Z,0.92
2018-02-20T22:49:48.395Z,1.08
2018-02-20T23:10:25.648Z,1.23
2018-02-20T23:30:59.526Z,1.57
2018-02-20T23:51:37.867Z,1.70
